Terminal Aerodrome Forecast
Issued by NWS

Home | Current Version | Previous Version | Text Only | Print | Product List | Glossary On
Versions: 1 2 3 4 5 6 7 8 9 10 11 12 13 14 15 16 17 18 19 20
179
FTUS46 KLOX 210543
TAFWJF
TAF
KWJF 210543Z 2106/2206 23015G20KT P6SM FEW040
     FM211600 25015G25KT P6SM VCSH BKN035
     FM212200 26025G35KT P6SM SCT040
     FM220300 26015G25KT P6SM SKC=

USA.gov is the U.S. government's official web portal to all federal, state and local government web resources and services.